»·PEaware :: N1939W KAVQ-KBXK

N1939W :: KAVQ-KBXK

FLIGHT INFORMATION

Flight Status: Arrived
Operator: Privately registered:
United States
More flights under this callsign
Pilot: Ralph F. (3863)
Aircraft: BEECH AIRCRAFT BARON
(BE58)
More flights by this aircraft type
Origin: KAVQ Marana Northwest Regl
United States
Destination: KBXK Buckeye Mun
United States
More flights between these airports :: More routes between these airports
Route:
File this flight plan on PilotEdge
Remarks:
Altitude:
(Current/Filed)
5,500ft
Speed:
(Current/Filed)
170kts
Departed: 05-Oct-20 03:45 PM
Arrived: 05-Oct-20 04:21 PM
Distance/Time
Traveled:
96nm/0:36
Distance/Time
To Go:
Arrived

Flight Plot

Page will automatically refresh every two minutes.

Flight plan parsing failed; only flown route is shown


Map Options




Map Legend


Flown Route
Filed Route
Departure Airport
Arrival Airport
Navaid (VOR, NDB)
Fix

Horizontal Profiles

Position Reports

Time Latitude Longitude Heading Altitude Ground
Speed
05-Oct-20 15:29 32.406011 -111.216690 135 2032ft 0kts
05-Oct-20 15:30 32.406011 -111.216690 135 2032ft 0kts
05-Oct-20 15:31 32.406011 -111.216690 135 2032ft 0kts
05-Oct-20 15:32 32.406011 -111.216690 135 2032ft 0kts
05-Oct-20 15:33 32.406011 -111.216690 135 2032ft 0kts
05-Oct-20 15:34 32.406011 -111.216690 135 2032ft 0kts
05-Oct-20 15:35 32.406011 -111.216690 135 2032ft 0kts
05-Oct-20 15:36 32.406011 -111.216690 135 2032ft 0kts
05-Oct-20 15:37 32.406011 -111.216690 135 2032ft 0kts
05-Oct-20 15:38 32.406011 -111.216690 135 2032ft 0kts
05-Oct-20 15:39 32.405992 -111.216661 121 2032ft 2kts
05-Oct-20 15:40 32.406341 -111.214924 134 2032ft 13kts
05-Oct-20 15:41 32.403582 -111.211452 85 2032ft 10kts
05-Oct-20 15:42 32.403642 -111.211300 50 2032ft 0kts
05-Oct-20 15:43 32.403642 -111.211300 50 2032ft 0kts
05-Oct-20 15:44 32.411230 -111.218763 315 2047ft 115kts
05-Oct-20 15:45 32.434772 -111.250672 302 3087ft 142kts
05-Oct-20 15:46 32.458483 -111.290359 308 4105ft 152kts
05-Oct-20 15:47 32.485210 -111.330098 308 5105ft 155kts
05-Oct-20 15:48 32.512864 -111.369528 309 6099ft 156kts
05-Oct-20 15:49 32.542279 -111.411288 309 6513ft 182kts
05-Oct-20 15:50 32.576070 -111.459572 309 6505ft 195kts
05-Oct-20 15:51 32.610897 -111.509805 309 6499ft 199kts
05-Oct-20 15:52 32.646242 -111.561044 309 6494ft 201kts
05-Oct-20 15:53 32.681828 -111.612680 309 6490ft 203kts
05-Oct-20 15:54 32.717635 -111.664606 309 6490ft 203kts
05-Oct-20 15:55 32.753451 -111.716531 309 6490ft 203kts
05-Oct-20 15:56 32.789379 -111.768604 309 6490ft 203kts
05-Oct-20 15:57 32.825146 -111.820424 309 6490ft 203kts
05-Oct-20 15:58 32.861086 -111.872474 309 6490ft 203kts
05-Oct-20 15:59 32.897096 -111.924607 309 6490ft 203kts
05-Oct-20 16:00 32.932937 -111.976476 309 6495ft 203kts
05-Oct-20 16:01 32.968878 -112.028470 309 6499ft 203kts
05-Oct-20 16:02 33.004798 -112.080214 309 6497ft 202kts
05-Oct-20 16:03 33.040883 -112.131406 309 6487ft 200kts
05-Oct-20 16:04 33.076804 -112.181955 308 6480ft 199kts
05-Oct-20 16:05 33.113438 -112.234757 308 5789ft 209kts
05-Oct-20 16:06 33.149462 -112.287946 308 4982ft 204kts
05-Oct-20 16:07 33.183962 -112.340250 308 4503ft 191kts
05-Oct-20 16:08 33.215860 -112.388312 308 4504ft 180kts
05-Oct-20 16:09 33.247337 -112.434604 308 4504ft 178kts
05-Oct-20 16:10 33.279569 -112.480664 309 4243ft 191kts
05-Oct-20 16:11 33.315299 -112.532053 307 3351ft 206kts
05-Oct-20 16:12 33.347596 -112.580535 307 2997ft 155kts
05-Oct-20 16:13 33.372066 -112.615583 309 2983ft 123kts
05-Oct-20 16:14 33.397881 -112.652247 308 2084ft 161kts
05-Oct-20 16:15 33.426388 -112.693302 308 1991ft 163kts
05-Oct-20 16:16 33.461122 -112.721772 356 1991ft 153kts
05-Oct-20 16:17 33.501300 -112.714805 55 1989ft 146kts
05-Oct-20 16:18 33.481073 -112.683106 173 1808ft 153kts
05-Oct-20 16:19 33.444055 -112.685370 181 1245ft 108kts
05-Oct-20 16:20 33.423871 -112.685859 60 1036ft 10kts
05-Oct-20 16:21 33.421861 -112.684925 180 1036ft 19kts
05-Oct-20 16:22 33.420162 -112.683380 160 1036ft 0kts
05-Oct-20 16:23 33.420162 -112.683380 160 1036ft 0kts
05-Oct-20 16:25 33.420162 -112.683380 160 1036ft 0kts

Navigation Log

Ident Type
Flight plan parsing failed, navigation log unavailable